Time;durP1;ratioP1;P1;durP2;ratioP2;P2;SDS_P1;SDS_P2;PMS_P1;PMS_P2;Temp;Humidity;BMP_temperature;BMP_pressure;BME280_temperature;BME280_humidity;BME280_pressure;Samples;Min_cycle;Max_cycle;Signal;HPM_P1;HPM_P2
2021/12/10 00:00:22;;;;;;;21.83;3.92;;;13.50;99.90;;;;;;4928251;29;20028;-64
2021/12/10 00:02:48;;;;;;;19.63;3.80;;;13.60;99.90;;;;;;4929713;29;20062;-64
2021/12/10 00:05:17;;;;;;;22.90;3.72;;;13.60;99.90;;;;;;4902065;29;20401;-64
2021/12/10 00:07:44;;;;;;;28.25;4.97;;;13.60;99.90;;;;;;4917397;29;20143;-64
2021/12/10 00:10:15;;;;;;;24.42;4.57;;;13.60;99.90;;;;;;4917028;29;20020;-63
2021/12/10 00:12:50;;;;;;;30.27;6.35;;;13.60;99.90;;;;;;4925879;29;20043;-64
2021/12/10 00:15:18;;;;;;;24.38;4.55;;;13.70;99.90;;;;;;4925538;29;20020;-65
2021/12/10 00:17:44;;;;;;;31.23;5.15;;;13.60;99.90;;;;;;4920138;29;20051;-64
2021/12/10 00:20:11;;;;;;;32.58;5.75;;;13.70;99.90;;;;;;4918130;29;20032;-64
2021/12/10 00:22:49;;;;;;;36.05;5.97;;;13.70;99.90;;;;;;4931341;29;20027;-65
2021/12/10 00:25:20;;;;;;;29.25;5.68;;;13.70;99.90;;;;;;4916787;29;20036;-64
2021/12/10 00:27:49;;;;;;;32.13;4.95;;;13.60;99.90;;;;;;4926918;29;20098;-64
2021/12/10 00:30:34;;;;;;;27.65;5.80;;;13.60;99.90;;;;;;4928490;29;20036;-65
2021/12/10 00:33:14;;;;;;;33.28;5.20;;;13.70;99.90;;;;;;4927450;29;20035;-65
2021/12/10 00:35:40;;;;;;;31.73;4.78;;;13.70;99.90;;;;;;4929893;29;20116;-65
2021/12/10 00:38:07;;;;;;;30.52;4.97;;;13.70;99.90;;;;;;4917323;29;20564;-64
2021/12/10 00:40:33;;;;;;;27.65;4.57;;;13.70;99.90;;;;;;4931121;29;20023;-65
2021/12/10 00:42:59;;;;;;;29.80;4.50;;;13.80;99.90;;;;;;4929202;29;20024;-65
2021/12/10 00:45:26;;;;;;;19.92;3.83;;;13.70;99.90;;;;;;4927903;29;20027;-64
2021/12/10 00:47:53;;;;;;;22.15;3.40;;;13.70;99.90;;;;;;4928061;29;20047;-65
2021/12/10 00:50:25;;;;;;;21.00;3.13;;;13.80;99.90;;;;;;4929531;29;20034;-65
2021/12/10 00:52:53;;;;;;;12.23;2.70;;;13.80;99.90;;;;;;4931644;29;20048;-65
2021/12/10 00:55:18;;;;;;;15.30;3.13;;;13.70;99.90;;;;;;4920467;29;20437;-64
2021/12/10 00:57:45;;;;;;;13.75;2.25;;;13.70;99.90;;;;;;4925594;29;20032;-63
2021/12/10 01:00:17;;;;;;;10.27;2.35;;;13.80;99.90;;;;;;4927647;29;20079;-64
2021/12/10 01:02:43;;;;;;;12.98;2.20;;;13.70;99.90;;;;;;4927779;29;20401;-63
2021/12/10 01:05:11;;;;;;;8.95;2.75;;;13.70;99.90;;;;;;4930809;29;20016;-64
2021/12/10 01:07:37;;;;;;;12.80;2.53;;;13.80;99.90;;;;;;4918165;29;20028;-64
2021/12/10 01:10:09;;;;;;;13.65;2.55;;;13.80;99.90;;;;;;4927539;29;20023;-65
2021/12/10 01:12:40;;;;;;;14.20;3.20;;;13.80;99.90;;;;;;4927082;29;20448;-64
2021/12/10 01:15:48;;;;;;;16.67;2.63;;;13.80;99.90;;;;;;4926407;29;20063;-64
2021/12/10 01:24:17;;;;;;;14.98;2.40;;;13.80;99.90;;;;;;4928185;29;20531;-65
2021/12/10 01:29:13;;;;;;;12.43;2.85;;;13.80;99.90;;;;;;4929926;29;20028;-64
2021/12/10 01:31:39;;;;;;;11.63;2.03;;;13.90;99.90;;;;;;4916832;29;20067;-65
2021/12/10 01:34:07;;;;;;;12.70;2.17;;;13.90;99.90;;;;;;4929546;29;20031;-66
2021/12/10 01:36:33;;;;;;;11.90;2.40;;;13.80;99.90;;;;;;4927607;29;20023;-65
2021/12/10 01:38:59;;;;;;;11.63;2.22;;;13.90;99.90;;;;;;4927462;29;20389;-64
2021/12/10 01:41:33;;;;;;;13.90;2.38;;;13.70;99.90;;;;;;4928333;29;20028;-65
2021/12/10 01:44:03;;;;;;;8.70;2.42;;;13.80;99.90;;;;;;4924825;29;20434;-65
2021/12/10 01:46:37;;;;;;;10.27;2.28;;;13.80;99.90;;;;;;4930895;29;20047;-66
2021/12/10 01:49:05;;;;;;;10.52;2.30;;;13.90;99.90;;;;;;4929351;29;20035;-66
2021/12/10 01:51:35;;;;;;;7.53;1.95;;;13.90;99.90;;;;;;4922058;29;20064;-65
2021/12/10 01:54:07;;;;;;;11.20;2.30;;;13.90;99.90;;;;;;4919418;29;20028;-65
2021/12/10 01:56:35;;;;;;;11.68;2.80;;;13.90;99.90;;;;;;4916383;29;20055;-64
2021/12/10 01:59:04;;;;;;;16.13;3.30;;;13.90;99.90;;;;;;4915042;29;20063;-65
2021/12/10 02:01:40;;;;;;;16.92;3.33;;;13.70;99.90;;;;;;4930681;29;20182;-66
2021/12/10 02:04:09;;;;;;;15.68;2.97;;;13.80;99.90;;;;;;4927756;29;20024;-66
2021/12/10 02:06:35;;;;;;;20.75;4.70;;;13.80;99.90;;;;;;4927157;29;20493;-63
2021/12/10 02:09:02;;;;;;;29.45;4.85;;;13.70;99.90;;;;;;4926605;29;20052;-66
2021/12/10 02:11:28;;;;;;;24.48;5.10;;;13.40;99.90;;;;;;4929576;29;20051;-66
2021/12/10 02:13:54;;;;;;;25.90;5.13;;;13.40;99.90;;;;;;4915747;29;20032;-65
2021/12/10 02:16:20;;;;;;;33.03;5.68;;;13.30;99.90;;;;;;4929642;29;20386;-65
2021/12/10 02:18:46;;;;;;;28.27;5.30;;;13.30;99.90;;;;;;4926936;29;20401;-65
2021/12/10 02:21:11;;;;;;;31.25;5.78;;;13.10;99.90;;;;;;4925044;29;20039;-65
2021/12/10 02:23:41;;;;;;;28.05;5.10;;;13.20;99.90;;;;;;4916379;29;20016;-66
2021/12/10 02:26:11;;;;;;;28.75;5.70;;;13.10;99.90;;;;;;4929418;29;20039;-65
2021/12/10 02:28:38;;;;;;;28.58;5.35;;;13.10;99.90;;;;;;4916795;29;20025;-65
2021/12/10 02:31:07;;;;;;;35.40;6.18;;;13.10;99.90;;;;;;4919521;29;20036;-65
2021/12/10 02:33:34;;;;;;;32.30;6.20;;;13.00;99.90;;;;;;4923777;29;20504;-65
2021/12/10 02:36:00;;;;;;;35.20;5.63;;;12.90;99.90;;;;;;4925973;29;20374;-65
2021/12/10 02:38:26;;;;;;;34.78;6.72;;;12.80;99.90;;;;;;4919476;29;20087;-65
2021/12/10 02:40:54;;;;;;;38.45;7.05;;;12.80;99.90;;;;;;4919610;29;20035;-64
2021/12/10 02:43:22;;;;;;;38.30;7.28;;;12.60;99.90;;;;;;4923199;29;20036;-66
2021/12/10 02:45:51;;;;;;;39.67;7.50;;;12.60;99.90;;;;;;4929353;29;20070;-65
2021/12/10 02:48:18;;;;;;;36.42;6.95;;;12.60;99.90;;;;;;4927106;29;20119;-65
2021/12/10 02:50:44;;;;;;;46.55;7.88;;;12.60;99.90;;;;;;4921194;29;20055;-65
2021/12/10 02:53:11;;;;;;;44.03;7.70;;;12.60;99.90;;;;;;4932822;29;20039;-65
2021/12/10 02:55:37;;;;;;;43.03;8.00;;;12.50;99.90;;;;;;4933250;29;20024;-65
2021/12/10 02:58:10;;;;;;;46.90;8.35;;;12.60;99.90;;;;;;4932141;29;20063;-64
2021/12/10 03:00:52;;;;;;;49.70;9.20;;;12.70;99.90;;;;;;4924011;29;20028;-65
2021/12/10 03:03:18;;;;;;;45.08;8.85;;;12.70;99.90;;;;;;4925209;29;20030;-65
2021/12/10 03:05:44;;;;;;;46.53;8.00;;;12.70;99.90;;;;;;4931039;29;20062;-65
2021/12/10 03:08:10;;;;;;;51.08;9.25;;;12.70;99.90;;;;;;4919129;29;20378;-65
2021/12/10 03:10:37;;;;;;;53.05;8.25;;;12.60;99.90;;;;;;4932608;29;20027;-65
2021/12/10 03:13:04;;;;;;;42.15;8.15;;;12.60;99.90;;;;;;4931828;29;20035;-64
2021/12/10 03:15:31;;;;;;;48.25;8.82;;;12.50;99.90;;;;;;4929083;29;20027;-64
2021/12/10 03:17:58;;;;;;;43.72;8.35;;;12.60;99.90;;;;;;4929205;29;20087;-63
2021/12/10 03:20:28;;;;;;;51.17;9.02;;;12.50;99.90;;;;;;4919002;29;20454;-65
2021/12/10 03:22:54;;;;;;;51.80;9.93;;;12.40;99.90;;;;;;4932857;29;20111;-66
2021/12/10 03:25:20;;;;;;;46.60;8.98;;;12.20;99.90;;;;;;4921990;29;20108;-65
2021/12/10 03:27:47;;;;;;;53.17;9.02;;;12.20;99.90;;;;;;4927656;29;20039;-65
2021/12/10 03:30:18;;;;;;;52.30;9.55;;;12.20;99.90;;;;;;4926716;29;20024;-65
2021/12/10 03:32:44;;;;;;;56.75;9.27;;;12.10;99.90;;;;;;4920388;29;20043;-65
2021/12/10 03:35:15;;;;;;;46.63;9.77;;;12.10;99.90;;;;;;4932631;29;20032;-66
2021/12/10 03:37:43;;;;;;;51.33;9.77;;;12.10;99.90;;;;;;4932021;29;20557;-65
2021/12/10 03:40:11;;;;;;;52.58;9.30;;;12.10;99.90;;;;;;4922217;29;20012;-66
2021/12/10 03:42:37;;;;;;;44.15;8.13;;;11.90;99.90;;;;;;4926587;29;20070;-66
2021/12/10 03:45:05;;;;;;;40.88;8.10;;;11.80;99.90;;;;;;4929812;29;20489;-65
2021/12/10 03:47:31;;;;;;;48.03;8.18;;;11.90;99.90;;;;;;4928934;29;20119;-65
2021/12/10 03:49:56;;;;;;;46.28;8.55;;;11.80;99.90;;;;;;4931469;29;20086;-65
2021/12/10 03:52:22;;;;;;;39.75;8.30;;;11.80;99.90;;;;;;4921416;29;20497;-65
2021/12/10 03:54:48;;;;;;;39.80;7.75;;;11.80;99.90;;;;;;4927937;29;20024;-64
2021/12/10 03:57:14;;;;;;;42.78;8.35;;;11.70;99.90;;;;;;4929120;29;20032;-64
2021/12/10 03:59:40;;;;;;;41.25;7.55;;;11.70;99.90;;;;;;4929016;29;20035;-65
2021/12/10 04:02:08;;;;;;;37.33;7.55;;;11.60;99.90;;;;;;4931891;29;20032;-65
2021/12/10 04:04:40;;;;;;;46.20;9.43;;;11.60;99.90;;;;;;4919215;29;20060;-65
2021/12/10 04:07:12;;;;;;;42.33;8.48;;;11.50;99.90;;;;;;4929014;29;20031;-65
2021/12/10 04:09:37;;;;;;;45.35;8.10;;;11.70;99.90;;;;;;4912501;29;20393;-65
2021/12/10 04:12:04;;;;;;;43.05;8.27;;;11.60;99.90;;;;;;4921483;29;20043;-65
2021/12/10 04:14:30;;;;;;;40.83;7.85;;;11.60;99.90;;;;;;4929502;29;20031;-64
2021/12/10 04:16:57;;;;;;;43.42;7.75;;;11.60;99.90;;;;;;4932471;29;20044;-64
2021/12/10 04:19:28;;;;;;;43.50;8.85;;;11.50;99.90;;;;;;4931028;29;20019;-64
2021/12/10 04:21:57;;;;;;;43.50;8.25;;;11.60;99.90;;;;;;4920132;29;20076;-65
2021/12/10 04:24:27;;;;;;;42.13;8.38;;;11.70;99.90;;;;;;4923955;29;20090;-65
2021/12/10 04:26:54;;;;;;;53.08;9.43;;;11.80;99.90;;;;;;4928211;29;20028;-65
2021/12/10 04:29:21;;;;;;;45.10;7.72;;;11.80;99.90;;;;;;4931393;29;20040;-65
2021/12/10 04:31:49;;;;;;;51.97;8.85;;;11.80;99.90;;;;;;4917055;29;20052;-66
2021/12/10 04:34:15;;;;;;;39.70;8.73;;;11.80;99.90;;;;;;4931144;29;20027;-65
2021/12/10 04:36:41;;;;;;;42.75;8.07;;;11.80;99.90;;;;;;4928453;29;20024;-65
2021/12/10 04:39:07;;;;;;;34.58;7.18;;;11.90;99.90;;;;;;4928037;29;20032;-65
2021/12/10 04:41:34;;;;;;;38.13;7.18;;;11.80;99.90;;;;;;4930950;29;20509;-65
2021/12/10 04:44:00;;;;;;;31.45;6.43;;;11.80;99.90;;;;;;4916287;29;20047;-65
2021/12/10 04:46:26;;;;;;;34.08;6.70;;;11.70;99.90;;;;;;4920579;29;20024;-64
2021/12/10 04:49:00;;;;;;;35.17;6.55;;;11.80;99.90;;;;;;4920164;29;20115;-64
2021/12/10 04:51:31;;;;;;;33.03;6.43;;;11.70;99.90;;;;;;4919272;29;20036;-65
2021/12/10 04:53:58;;;;;;;41.72;7.13;;;11.60;99.90;;;;;;4920521;29;20056;-64
2021/12/10 04:56:24;;;;;;;40.13;7.15;;;11.60;99.90;;;;;;4917266;29;20520;-64
2021/12/10 04:58:50;;;;;;;35.38;6.78;;;11.70;99.90;;;;;;4930642;29;20777;-65
2021/12/10 05:01:16;;;;;;;41.28;7.65;;;11.50;99.90;;;;;;4930602;29;20505;-65
2021/12/10 05:03:42;;;;;;;36.30;6.88;;;11.60;99.90;;;;;;4920983;29;20462;-65
2021/12/10 05:06:08;;;;;;;38.35;6.78;;;11.50;99.90;;;;;;4919809;29;20111;-65
2021/12/10 05:08:36;;;;;;;44.17;7.80;;;11.50;99.90;;;;;;4917534;29;20034;-63
2021/12/10 05:11:04;;;;;;;45.25;8.20;;;11.50;99.90;;;;;;4930434;29;20024;-64
2021/12/10 05:13:30;;;;;;;40.70;7.35;;;11.50;99.90;;;;;;4919220;29;20040;-65
2021/12/10 05:15:58;;;;;;;43.03;7.90;;;11.50;99.90;;;;;;4918965;29;20051;-65
2021/12/10 05:18:28;;;;;;;49.25;8.25;;;11.50;99.90;;;;;;4919689;29;20520;-64
2021/12/10 05:20:54;;;;;;;47.22;8.63;;;11.50;99.90;;;;;;4919446;29;20397;-64
2021/12/10 05:23:21;;;;;;;46.20;8.52;;;11.40;99.90;;;;;;4929543;29;20571;-64
2021/12/10 05:25:48;;;;;;;44.95;8.05;;;11.50;99.90;;;;;;4929973;29;20034;-64
2021/12/10 05:28:14;;;;;;;42.70;8.60;;;11.60;99.90;;;;;;4930426;29;20034;-64
2021/12/10 05:30:40;;;;;;;52.28;8.57;;;11.60;99.90;;;;;;4921501;29;20028;-64
2021/12/10 05:33:13;;;;;;;46.25;8.55;;;11.50;99.90;;;;;;4920731;29;20409;-64
2021/12/10 05:35:39;;;;;;;40.88;8.85;;;11.60;99.90;;;;;;4929375;29;20028;-65
2021/12/10 05:38:04;;;;;;;49.28;8.85;;;11.70;99.90;;;;;;4916160;29;20135;-65
2021/12/10 05:40:30;;;;;;;46.20;8.75;;;11.60;99.90;;;;;;4930218;29;20094;-65
2021/12/10 05:42:56;;;;;;;50.33;8.13;;;11.70;99.90;;;;;;4928058;29;20471;-65
2021/12/10 05:45:23;;;;;;;39.85;6.72;;;11.50;99.90;;;;;;4923413;29;20028;-65
2021/12/10 05:47:49;;;;;;;31.25;6.53;;;11.50;99.90;;;;;;4918844;29;20074;-65
2021/12/10 05:50:17;;;;;;;29.08;6.18;;;11.50;99.90;;;;;;4916758;29;20051;-65
2021/12/10 05:52:43;;;;;;;40.28;7.03;;;11.60;99.90;;;;;;4917091;29;20391;-65
2021/12/10 05:55:09;;;;;;;31.70;6.10;;;11.30;99.90;;;;;;4919538;29;20031;-65
2021/12/10 05:57:36;;;;;;;35.35;6.63;;;11.40;99.90;;;;;;4924730;29;20095;-65
2021/12/10 06:00:06;;;;;;;34.25;6.00;;;11.30;99.90;;;;;;4926073;29;20061;-65
2021/12/10 06:02:31;;;;;;;29.30;6.80;;;11.20;99.90;;;;;;4919313;29;20020;-65
2021/12/10 06:04:58;;;;;;;41.70;6.80;;;11.10;99.90;;;;;;4915020;29;20035;-64
2021/12/10 06:07:24;;;;;;;33.47;6.80;;;11.20;99.90;;;;;;4919562;29;20036;-64
2021/12/10 06:09:50;;;;;;;37.42;6.57;;;11.30;99.90;;;;;;4918307;29;20528;-63
2021/12/10 06:12:16;;;;;;;31.13;6.82;;;11.40;99.90;;;;;;4922985;29;20071;-64
2021/12/10 06:14:42;;;;;;;40.33;7.35;;;11.40;99.90;;;;;;4932380;29;20024;-65
2021/12/10 06:17:08;;;;;;;33.63;6.57;;;11.50;99.90;;;;;;4919673;29;20430;-64
2021/12/10 06:19:34;;;;;;;36.58;6.68;;;11.40;99.90;;;;;;4933366;29;20501;-64
2021/12/10 06:22:00;;;;;;;36.88;6.53;;;11.30;99.90;;;;;;4932594;29;20087;-64
2021/12/10 06:24:26;;;;;;;38.33;7.10;;;11.40;99.90;;;;;;4926294;29;20032;-64
2021/12/10 06:26:52;;;;;;;44.40;7.93;;;11.40;99.90;;;;;;4921846;29;20028;-64
2021/12/10 06:29:23;;;;;;;42.35;7.55;;;11.40;99.90;;;;;;4933387;29;20385;-64
2021/12/10 06:31:49;;;;;;;36.28;7.22;;;11.40;99.90;;;;;;4919591;29;20119;-64
2021/12/10 06:34:14;;;;;;;37.35;6.75;;;11.40;99.90;;;;;;4923099;29;20032;-64
2021/12/10 06:36:40;;;;;;;28.55;5.63;;;11.40;99.90;;;;;;4922428;29;20115;-63
2021/12/10 06:39:07;;;;;;;29.73;6.70;;;11.30;99.90;;;;;;4924291;29;20052;-64
2021/12/10 06:41:34;;;;;;;28.58;5.50;;;11.10;99.90;;;;;;4933111;29;20031;-64
2021/12/10 06:44:04;;;;;;;32.22;6.30;;;11.10;99.90;;;;;;4919903;29;20504;-63
2021/12/10 06:46:34;;;;;;;32.00;6.00;;;11.10;99.90;;;;;;4934185;29;20035;-63
2021/12/10 06:49:00;;;;;;;29.25;5.70;;;11.20;99.90;;;;;;4932294;29;20111;-64
2021/12/10 06:51:25;;;;;;;36.38;6.75;;;11.30;99.90;;;;;;4930207;29;20126;-64
2021/12/10 06:53:52;;;;;;;37.38;7.10;;;11.10;99.90;;;;;;4930349;29;20059;-64
2021/12/10 06:56:19;;;;;;;37.08;6.65;;;11.00;99.90;;;;;;4920299;29;20409;-63
2021/12/10 06:58:45;;;;;;;37.72;8.02;;;11.10;99.90;;;;;;4919174;29;20083;-64
2021/12/10 07:01:18;;;;;;;40.15;7.75;;;10.90;99.90;;;;;;4918184;29;20107;-63
2021/12/10 07:03:46;;;;;;;41.70;6.78;;;10.70;99.90;;;;;;4921986;29;20040;-64
2021/12/10 07:06:12;;;;;;;47.00;7.68;;;10.80;99.90;;;;;;4921793;29;20508;-64
2021/12/10 07:08:40;;;;;;;42.63;7.50;;;10.90;99.90;;;;;;4922181;29;20026;-64
2021/12/10 07:11:09;;;;;;;39.40;7.25;;;10.60;99.90;;;;;;4918475;29;20047;-63
2021/12/10 07:13:37;;;;;;;43.13;6.95;;;10.80;99.90;;;;;;4920016;29;20100;-63
2021/12/10 07:16:04;;;;;;;37.42;7.47;;;10.70;99.90;;;;;;4931678;29;20523;-63
2021/12/10 07:18:30;;;;;;;28.42;5.40;;;10.60;99.90;;;;;;4909405;29;20493;-63
2021/12/10 07:20:56;;;;;;;35.75;6.28;;;10.40;99.90;;;;;;4921542;29;20020;-63
2021/12/10 07:23:23;;;;;;;25.20;5.47;;;10.50;99.90;;;;;;4918409;29;20036;-63
2021/12/10 07:25:49;;;;;;;27.48;5.13;;;10.40;99.90;;;;;;4933904;29;20081;-63
2021/12/10 07:28:16;;;;;;;25.50;5.25;;;10.50;99.90;;;;;;4936361;29;20362;-63
2021/12/10 07:30:42;;;;;;;25.98;4.95;;;10.30;99.90;;;;;;4928776;29;20038;-63
2021/12/10 07:33:09;;;;;;;23.42;4.60;;;10.20;99.90;;;;;;4929774;29;20052;-63
2021/12/10 07:35:37;;;;;;;22.13;4.10;;;10.10;99.90;;;;;;4926633;29;20024;-63
2021/12/10 07:38:03;;;;;;;28.85;4.57;;;10.10;99.90;;;;;;4918562;29;20106;-62
2021/12/10 07:40:31;;;;;;;25.45;4.70;;;10.10;99.90;;;;;;4932736;29;20058;-63
2021/12/10 07:42:57;;;;;;;30.98;5.35;;;10.20;99.90;;;;;;4921474;29;20063;-62
2021/12/10 07:45:24;;;;;;;24.30;4.53;;;10.10;99.90;;;;;;4925029;29;20538;-63
2021/12/10 07:47:53;;;;;;;29.08;4.45;;;10.00;99.90;;;;;;4929774;29;20038;-63
2021/12/10 07:50:26;;;;;;;29.98;4.78;;;10.10;99.90;;;;;;4919336;29;20502;-63
2021/12/10 07:52:55;;;;;;;28.17;5.22;;;10.10;99.90;;;;;;4917893;29;20055;-63
2021/12/10 07:55:24;;;;;;;32.15;5.75;;;10.20;99.90;;;;;;4931974;29;20036;-62
2021/12/10 07:57:50;;;;;;;30.02;5.30;;;10.30;99.90;;;;;;4921352;29;20035;-62
2021/12/10 08:00:17;;;;;;;31.88;5.60;;;10.40;99.90;;;;;;4923287;29;20028;-64
2021/12/10 08:02:43;;;;;;;24.30;4.88;;;10.50;99.90;;;;;;4929031;29;20036;-64
2021/12/10 08:05:11;;;;;;;27.25;4.82;;;10.50;99.90;;;;;;4931493;29;20023;-63
2021/12/10 08:07:37;;;;;;;27.92;4.82;;;10.50;99.90;;;;;;4931208;29;20433;-63
2021/12/10 08:10:05;;;;;;;22.98;4.43;;;10.50;99.90;;;;;;4928865;29;20028;-64
2021/12/10 08:12:31;;;;;;;25.23;4.47;;;10.50;99.90;;;;;;4923706;29;20505;-63
2021/12/10 08:14:57;;;;;;;22.20;4.45;;;10.60;99.90;;;;;;4920826;29;20119;-64
2021/12/10 08:17:25;;;;;;;24.15;4.93;;;10.60;99.90;;;;;;4930719;29;20425;-63
2021/12/10 08:19:52;;;;;;;23.73;4.50;;;10.50;99.90;;;;;;4917362;29;20112;-63
2021/12/10 08:22:19;;;;;;;28.15;4.85;;;10.40;99.90;;;;;;4931523;29;20032;-63
2021/12/10 08:24:45;;;;;;;28.23;4.95;;;10.50;99.90;;;;;;4922301;29;20478;-63
2021/12/10 08:27:11;;;;;;;29.48;4.90;;;10.60;99.90;;;;;;4919917;29;20032;-63
2021/12/10 08:29:36;;;;;;;28.13;4.93;;;10.60;99.90;;;;;;4917941;29;20044;-63
2021/12/10 08:32:03;;;;;;;25.20;4.60;;;10.70;99.90;;;;;;4932454;29;20417;-64
2021/12/10 08:34:30;;;;;;;23.45;4.47;;;10.60;99.90;;;;;;4931495;29;20028;-63
2021/12/10 08:36:56;;;;;;;22.88;4.80;;;10.70;99.90;;;;;;4928954;29;20110;-63
2021/12/10 08:39:23;;;;;;;18.30;4.40;;;10.70;99.90;;;;;;4928026;29;20473;-63
2021/12/10 08:41:48;;;;;;;21.92;4.57;;;10.70;99.90;;;;;;4928545;29;20031;-63
2021/12/10 08:44:14;;;;;;;20.40;4.78;;;10.70;99.90;;;;;;4916462;29;20071;-63
2021/12/10 08:46:42;;;;;;;23.30;4.88;;;10.70;99.90;;;;;;4917493;29;20028;-63
2021/12/10 08:49:09;;;;;;;20.05;4.25;;;10.70;99.90;;;;;;4920676;29;20040;-63
2021/12/10 08:51:40;;;;;;;19.80;4.07;;;10.80;99.90;;;;;;4919746;29;20043;-63
2021/12/10 08:54:06;;;;;;;26.35;4.95;;;10.90;99.90;;;;;;4921499;29;20071;-63
2021/12/10 08:56:33;;;;;;;22.27;3.90;;;10.70;99.90;;;;;;4930340;29;20032;-63
2021/12/10 08:59:00;;;;;;;27.67;4.45;;;10.80;99.90;;;;;;4915956;29;20024;-64
2021/12/10 09:01:32;;;;;;;22.77;5.00;;;10.80;99.90;;;;;;4920158;29;20397;-63
2021/12/10 09:03:59;;;;;;;19.92;4.10;;;10.60;99.90;;;;;;4919998;29;20036;-63
2021/12/10 09:06:28;;;;;;;20.58;3.67;;;10.50;99.90;;;;;;4919815;29;20036;-63
2021/12/10 09:08:54;;;;;;;19.65;4.00;;;10.40;99.90;;;;;;4921876;29;20035;-64
2021/12/10 09:11:20;;;;;;;24.58;4.43;;;10.60;99.90;;;;;;4930427;29;20036;-63
2021/12/10 09:13:46;;;;;;;23.90;3.72;;;10.30;99.90;;;;;;4916500;29;20064;-63
2021/12/10 09:16:21;;;;;;;21.38;3.65;;;10.30;99.90;;;;;;4930351;29;20043;-63
2021/12/10 09:18:47;;;;;;;21.35;3.45;;;10.50;99.90;;;;;;4927314;29;20511;-63
2021/12/10 09:21:13;;;;;;;14.27;3.13;;;10.40;99.90;;;;;;4927451;29;20023;-63
2021/12/10 09:23:39;;;;;;;21.13;3.53;;;10.30;99.90;;;;;;4929053;29;20036;-63
2021/12/10 09:26:10;;;;;;;22.15;3.90;;;10.30;99.90;;;;;;4916701;29;20030;-63
2021/12/10 09:28:37;;;;;;;21.23;3.50;;;10.40;99.90;;;;;;4929720;29;20020;-63
2021/12/10 09:31:03;;;;;;;21.20;3.60;;;10.30;99.90;;;;;;4928128;29;20035;-63
2021/12/10 09:33:30;;;;;;;26.08;4.05;;;10.40;99.90;;;;;;4904357;29;20036;-64
2021/12/10 09:35:56;;;;;;;23.95;4.07;;;10.40;99.90;;;;;;4919386;29;20123;-63
2021/12/10 09:38:24;;;;;;;25.20;4.13;;;10.60;99.90;;;;;;4928752;29;20409;-62
2021/12/10 09:40:54;;;;;;;25.67;3.95;;;10.70;99.90;;;;;;4930588;29;20031;-63
2021/12/10 09:43:20;;;;;;;22.30;4.32;;;10.60;99.90;;;;;;4929785;29;20012;-63
2021/12/10 09:45:47;;;;;;;21.45;4.40;;;10.60;99.90;;;;;;4920520;29;20036;-62
2021/12/10 09:48:16;;;;;;;20.65;3.45;;;10.60;99.90;;;;;;4919043;29;20047;-62
2021/12/10 09:50:47;;;;;;;22.55;4.45;;;10.70;99.90;;;;;;4919530;29;20032;-63
2021/12/10 09:53:15;;;;;;;22.30;4.10;;;10.70;99.90;;;;;;4916207;29;20493;-62
2021/12/10 09:55:42;;;;;;;26.58;4.43;;;10.50;99.90;;;;;;4929178;29;20027;-61
2021/12/10 09:58:07;;;;;;;23.10;3.90;;;10.60;99.90;;;;;;4920840;29;20051;-62
2021/12/10 10:00:40;;;;;;;18.90;4.10;;;10.70;99.90;;;;;;4924552;29;20054;-63
2021/12/10 10:03:11;;;;;;;25.48;4.75;;;10.60;99.90;;;;;;4927243;29;20373;-62
2021/12/10 10:05:40;;;;;;;23.42;4.22;;;10.80;99.90;;;;;;4926865;29;20107;-64
2021/12/10 10:08:10;;;;;;;21.95;4.05;;;10.70;99.90;;;;;;4930573;29;20521;-63
2021/12/10 10:10:39;;;;;;;19.27;4.03;;;10.80;99.90;;;;;;4929788;29;20111;-64
2021/12/10 10:13:07;;;;;;;23.63;4.78;;;10.80;99.90;;;;;;4919508;29;20043;-64
2021/12/10 10:15:37;;;;;;;23.45;4.00;;;10.80;99.90;;;;;;4923585;29;20388;-64
2021/12/10 10:18:05;;;;;;;23.67;4.43;;;10.90;99.90;;;;;;4925937;29;20524;-63
2021/12/10 10:20:35;;;;;;;28.00;4.32;;;10.90;99.90;;;;;;4916419;29;20025;-62
2021/12/10 10:23:02;;;;;;;27.30;4.65;;;10.60;99.90;;;;;;4914703;29;20079;-63
2021/12/10 10:25:28;;;;;;;25.63;4.22;;;10.70;99.90;;;;;;4919474;29;20027;-63
2021/12/10 10:27:56;;;;;;;27.05;5.05;;;10.60;99.90;;;;;;4926421;29;20064;-63
2021/12/10 10:30:28;;;;;;;23.50;4.93;;;10.60;99.90;;;;;;4921834;29;20039;-63
2021/12/10 10:32:55;;;;;;;21.50;4.22;;;10.80;99.90;;;;;;4918805;29;20095;-63
2021/12/10 10:35:27;;;;;;;17.42;3.63;;;10.70;99.90;;;;;;4912873;29;20589;-64
2021/12/10 10:37:54;;;;;;;22.95;3.65;;;10.70;99.90;;;;;;4915454;29;20126;-62
2021/12/10 10:40:24;;;;;;;15.80;3.47;;;10.70;99.90;;;;;;4929695;29;20028;-63
2021/12/10 10:42:54;;;;;;;18.42;3.65;;;10.80;99.90;;;;;;4926600;29;20040;-63
2021/12/10 10:45:23;;;;;;;16.63;3.03;;;10.80;99.90;;;;;;4926781;29;20016;-64
2021/12/10 10:47:51;;;;;;;15.82;3.28;;;10.60;99.90;;;;;;4925723;29;20063;-66
2021/12/10 10:50:31;;;;;;;15.98;3.53;;;10.60;99.90;;;;;;4928936;29;20019;-63
2021/12/10 10:53:00;;;;;;;12.45;2.88;;;10.50;99.90;;;;;;4929557;29;20059;-64
2021/12/10 10:55:31;;;;;;;16.15;3.03;;;10.80;99.90;;;;;;4919336;29;20103;-62
2021/12/10 10:58:10;;;;;;;13.60;3.20;;;10.70;99.90;;;;;;4919137;29;20028;-61
2021/12/10 11:00:52;;;;;;;17.17;3.17;;;10.60;99.90;;;;;;4930531;29;20027;-63
2021/12/10 11:03:22;;;;;;;18.33;3.80;;;10.50;99.90;;;;;;4933188;29;20064;-62
2021/12/10 11:05:58;;;;;;;17.48;3.53;;;10.40;99.90;;;;;;4933173;29;20080;-64
2021/12/10 11:08:32;;;;;;;20.38;4.63;;;10.20;99.90;;;;;;4931494;29;20077;-63
2021/12/10 11:11:10;;;;;;;;;;;10.40;99.90;;;;;;4934038;29;20028;-64
2021/12/10 11:13:36;;;;;;;23.05;3.85;;;10.60;99.90;;;;;;4934688;29;19937;-63
2021/12/10 11:16:06;;;;;;;20.58;3.95;;;10.60;99.90;;;;;;4922325;29;20032;-63
2021/12/10 11:18:50;;;;;;;21.23;3.28;;;10.80;99.90;;;;;;4925969;29;20034;-62
2021/12/10 11:21:31;;;;;;;22.08;3.92;;;10.70;99.90;;;;;;4929315;29;20028;-63
2021/12/10 11:24:11;;;;;;;17.63;3.45;;;10.80;99.90;;;;;;4931926;29;20040;-64
2021/12/10 11:26:44;;;;;;;16.45;3.15;;;11.00;99.90;;;;;;4931990;29;20078;-64
2021/12/10 11:29:41;;;;;;;15.85;3.65;;;10.90;99.90;;;;;;4918029;29;20028;-61
2021/12/10 11:32:14;;;;;;;19.17;3.85;;;10.70;99.90;;;;;;4918607;29;20172;-63
2021/12/10 11:34:51;;;;;;;17.75;4.00;;;10.70;99.90;;;;;;4931473;29;20106;-63
2021/12/10 11:37:39;;;;;;;20.42;4.00;;;10.60;99.90;;;;;;4921719;29;20405;-63
2021/12/10 11:40:40;;;;;;;19.50;3.53;;;10.80;99.90;;;;;;4921075;29;20486;-63
2021/12/10 11:43:44;;;;;;;13.95;3.15;;;10.90;99.90;;;;;;4895997;29;20089;-63
2021/12/10 11:48:44;;;;;;;14.98;2.88;;;10.60;99.90;;;;;;4854071;29;20026;-63
2021/12/10 11:51:20;;;;;;;19.88;4.07;;;10.30;99.90;;;;;;4854571;29;20123;-63
2021/12/10 11:53:59;;;;;;;11.73;3.05;;;10.00;99.90;;;;;;4854751;29;20115;-63
2021/12/10 11:56:40;;;;;;;14.90;3.03;;;9.70;99.90;;;;;;4855617;29;20456;-64
2021/12/10 11:59:17;;;;;;;15.25;9.05;;;9.80;99.90;;;;;;4854265;29;20044;-63
2021/12/10 12:02:03;;;;;;;19.48;7.97;;;9.60;99.90;;;;;;4856774;29;20040;-64
2021/12/10 12:04:38;;;;;;;14.93;4.13;;;9.70;99.90;;;;;;4854798;29;20422;-63
2021/12/10 12:07:24;;;;;;;29.83;18.35;;;9.90;99.90;;;;;;4856056;29;20071;-64
2021/12/10 12:10:21;;;;;;;15.38;3.30;;;9.80;99.90;;;;;;4853296;29;20050;-64
2021/12/10 12:12:51;;;;;;;7.68;2.40;;;9.90;99.90;;;;;;4853610;29;20145;-64
2021/12/10 12:15:41;;;;;;;10.73;2.40;;;9.90;99.90;;;;;;4854312;29;20036;-65
2021/12/10 12:18:14;;;;;;;10.35;2.60;;;10.10;99.90;;;;;;4863067;29;20084;-63
2021/12/10 12:20:44;;;;;;;12.50;2.77;;;10.00;99.90;;;;;;4875719;29;20115;-64
2021/12/10 12:26:10;;;;;;;12.73;2.38;;;10.10;99.90;;;;;;4916830;29;20051;-64
2021/12/10 12:28:47;;;;;;;18.50;3.65;;;10.20;99.90;;;;;;4930403;29;20032;-64
2021/12/10 12:31:24;;;;;;;19.67;3.63;;;10.30;99.90;;;;;;4920532;29;20115;-64
2021/12/10 12:34:13;;;;;;;27.58;4.03;;;10.40;99.90;;;;;;4919106;29;20127;-65
2021/12/10 12:36:51;;;;;;;22.83;3.83;;;10.40;99.90;;;;;;4926167;29;20023;-65
2021/12/10 12:39:36;;;;;;;20.75;3.92;;;10.30;99.90;;;;;;4925625;29;20035;-65
2021/12/10 12:42:05;;;;;;;19.33;3.55;;;10.20;99.90;;;;;;4920912;29;20042;-64
2021/12/10 12:44:35;;;;;;;20.95;3.88;;;10.40;99.90;;;;;;4931086;29;20028;-64
2021/12/10 12:47:17;;;;;;;19.40;3.47;;;10.20;99.90;;;;;;4915467;29;20103;-64
2021/12/10 12:49:49;;;;;;;23.50;4.97;;;10.20;99.90;;;;;;4930600;29;20493;-65
2021/12/10 12:52:19;;;;;;;25.27;6.65;;;10.40;99.90;;;;;;4916363;29;20520;-64
2021/12/10 12:55:22;;;;;;;24.52;4.28;;;10.50;99.90;;;;;;4920290;29;20036;-64
2021/12/10 12:57:56;;;;;;;26.63;7.20;;;10.40;99.90;;;;;;4920113;29;20028;-64
2021/12/10 13:00:27;;;;;;;24.05;5.00;;;10.30;99.90;;;;;;4919681;29;20115;-63
2021/12/10 13:03:05;;;;;;;22.92;4.57;;;10.50;99.90;;;;;;4918597;29;20032;-63